Disclaimer

Please do not use the information listed here in-flight or in-navigation, as they are not provided to us by the airports but are provided by volunteers, so they might be outdated.

Search


Regions


Airport information page

Radio informations:
MEXICO TWR - 118.1 MHz
MEXICO INFO - 126.9 MHz
Ground (GND) - 121.0 MHz
MEXICO DEP - 120.5 MHz
MEXICO CLNC DEL - 122.1 MHz
Automatic Terminal Information Service (ATIS) - 127.65 MHz
MEXICO ARR - 129.6 MHz

Airport informations:
Latitude: 19° 26' 10.69" N
Longitude: 099° 04' 19.55" W
Elevation: 7316 feet - 2230 meters
Operating hours: 24 hour operations
Operating agency: Civil government, landing fees and diplomatic clearance may be required
Timezone: UTC-6(-5DT) - First Sunday in April to the last Saturday in October
Fuel: Jet A1, without icing nhibitor.

Runway information:
05R/23L - 12795 x 148 feet< - >3900 x 45 meters
05L/23R - 12966 x 148 feet< - >3952 x 45 meters

Recent METARs:
MMMX 191544Z 08005KT 6SM SKC 14/04 A3042 NOSIG RMK HZY
MMMX 191624Z 14003KT 5SM SKC 16/03 A3042 NOSIG RMK HZY
MMMX 191644Z 14005KT 5SM SKC 17/03 A3041 NOSIG RMK HZY

Airport on the map: